Ashley, OH

3:34 AM EDT on April 28, 2015 (GMT -0400)
Delaware Lake | | Change Station
CLOSE
Current Station
Personal Weather Station
Location: Delaware, OH
Elevation: 932 ft
Nearby Weather Stations
Active Advisory: Frost Advisory

Elev 932 ft 40.37 °N, 83.03 °W | Updated 31 seconds ago

Clear
Clear
32.7 °F
Feels Like 33 °F
N
0.0
Wind Variable Wind from NNW

Today
High -- | Low -- °F
--% Chance of Precip.
Yesterday
High -- | Low -- °F
Precip. -- in
6:35 AM 8:24 PM
Waxing Gibbous, 71% visible
Pressure 30.08 in
Visibility 10.0 miles
Clouds Clear
Windchill 33 °F
Dew Point 32 °F
Humidity 99%
Rainfall 0.00 in
Snow Depth Not available.
UV 0 out of 12
Pollen 10.60 out of 12
Air Quality Not available.
Flu Activity Regional
METAR KDLZ 280658Z AUTO 00000KT 10SM CLR 01/00 A3008 RMK AO2

More Conditions Fewer Conditions

Pressure 30.08 in
Visibility 10.0 miles
Clouds Clear
Windchill 33 °F
Dew Point 32 °F
Humidity 99%
Rainfall 0.00 in
Snow Depth Not available.
UV 0 out of 12
Pollen 10.60 out of 12
Air Quality Not available.
Flu Activity Regional
METAR KDLZ 280658Z AUTO 00000KT 10SM CLR 01/00 A3008 RMK AO2

More Conditions Fewer Conditions

10-Day Weather Forecast

Almanac

Astronomy

Apr. 28, 2015 Rise Set
Actual Time
Civil Twilight
Nautical Twilight
Astronomical Twilight
Moon
Length of Visible Light
Length of Day
Tomorrow will be .
, % of the Moon is Illuminated

Today's Extremes

State Highs State Lows

Community

WunderPhotos

Upload Photos

1,817,594 photos uploaded!

WunderBlogs® & News

Nearby

Air Quality

  Air Quality AQ Index Pollutant
Not available.

Snow Depth

Station Depth Elevation

Earthquake Activity

City Distance Mag. Time & Date
Minimum magnitude displayed is 2.5.

Coastal Water Temperatures

Place Temperature

Stations

Nearby Weather Stations

Station Location Temp. Windchill Dew Point Humidity Wind Precip. Elev Updated Type
                   
Frost Advisory
Statement as of 12:14 AM EDT on April 28, 2015

... Frost advisory remains in effect until 9 am EDT this morning...

* temperatures... lows in the mid 30s.

* Impacts... sensitive plants left outdoors and unprotected may
be damaged.

Precautionary/preparedness actions...

A frost advisory means that frost is likely. Sensitive outdoor
plants may be killed if left uncovered.